Time;durP1;ratioP1;P1;durP2;ratioP2;P2;SDS_P1;SDS_P2;PMS_P1;PMS_P2;Temp;Humidity;BMP_temperature;BMP_pressure;BME280_temperature;BME280_humidity;BME280_pressure;Samples;Min_cycle;Max_cycle;Signal;HPM_P1;HPM_P2
2022/09/04 00:01:39;;;;;;;4.55;1.70;;;22.90;59.10;;;;;;6097135;23;20022;-66
2022/09/04 00:04:21;;;;;;;5.65;1.90;;;22.80;58.90;;;;;;6096966;23;20002;-65
2022/09/04 00:07:13;;;;;;;3.17;1.63;;;22.80;58.80;;;;;;6096991;23;20027;-66
2022/09/04 00:10:01;;;;;;;2.83;1.98;;;22.80;58.90;;;;;;6096832;23;20002;-65
2022/09/04 00:12:33;;;;;;;6.90;2.00;;;22.80;59.00;;;;;;6096834;23;20026;-66
2022/09/04 00:15:12;;;;;;;2.65;1.80;;;22.80;58.90;;;;;;6097129;23;20050;-66
2022/09/04 00:18:10;;;;;;;5.95;1.70;;;22.80;58.90;;;;;;6096830;23;20042;-66
2022/09/04 00:20:45;;;;;;;2.22;1.50;;;22.70;58.90;;;;;;6092406;23;20038;-66
2022/09/04 00:23:19;;;;;;;4.13;2.00;;;22.70;59.00;;;;;;6096941;23;20082;-66
2022/09/04 00:26:05;;;;;;;5.85;2.00;;;22.60;59.10;;;;;;6096868;23;19998;-66
2022/09/04 00:28:40;;;;;;;5.25;1.80;;;22.70;59.20;;;;;;6096785;23;20017;-66
2022/09/04 00:31:41;;;;;;;3.35;1.70;;;22.60;59.20;;;;;;6096910;23;20452;-66
2022/09/04 00:34:59;;;;;;;3.55;1.70;;;22.60;59.40;;;;;;6050816;23;20017;-66
2022/09/04 00:37:31;;;;;;;3.53;1.55;;;22.60;59.30;;;;;;6010472;23;20004;-66
2022/09/04 00:40:32;;;;;;;6.15;1.80;;;22.50;59.40;;;;;;6095323;23;20078;-66
2022/09/04 00:43:09;;;;;;;6.50;2.55;;;22.50;59.50;;;;;;6099067;23;20014;-66
2022/09/04 00:46:12;;;;;;;7.75;1.98;;;22.50;59.80;;;;;;6098705;23;19998;-66
2022/09/04 00:48:41;;;;;;;3.60;2.17;;;22.50;60.00;;;;;;6098758;23;20050;-66
2022/09/04 00:51:51;;;;;;;3.90;1.92;;;22.40;60.00;;;;;;6073132;23;20315;-65
2022/09/04 00:54:33;;;;;;;5.15;1.65;;;22.40;60.10;;;;;;6094379;23;20371;-66
2022/09/04 00:57:02;;;;;;;3.22;1.55;;;22.40;60.10;;;;;;6098635;23;20021;-66
2022/09/04 00:59:33;;;;;;;2.67;1.80;;;22.40;60.00;;;;;;6098492;23;20022;-66
2022/09/04 01:02:28;;;;;;;4.03;1.60;;;22.30;60.00;;;;;;6098850;23;20054;-65
2022/09/04 01:05:12;;;;;;;3.70;1.70;;;22.30;60.30;;;;;;6066618;23;20010;-66
2022/09/04 01:08:08;;;;;;;4.10;1.70;;;22.30;60.50;;;;;;6098971;23;20311;-66
2022/09/04 01:11:06;;;;;;;4.82;1.80;;;22.20;60.50;;;;;;6098539;23;20034;-66
2022/09/04 01:13:59;;;;;;;4.18;1.77;;;22.20;60.50;;;;;;6094325;23;20007;-66
2022/09/04 01:17:09;;;;;;;4.47;1.48;;;22.20;60.70;;;;;;6098432;23;20016;-67
2022/09/04 01:20:20;;;;;;;2.75;1.67;;;22.20;61.20;;;;;;6079529;23;20006;-66
2022/09/04 01:23:01;;;;;;;3.58;1.70;;;22.20;61.40;;;;;;6094252;23;20022;-66
2022/09/04 01:25:55;;;;;;;8.02;1.88;;;22.10;61.20;;;;;;6098894;23;20415;-66
2022/09/04 01:28:34;;;;;;;7.07;1.80;;;22.10;61.30;;;;;;6098318;23;20010;-66
2022/09/04 01:31:06;;;;;;;7.32;1.95;;;22.00;61.40;;;;;;6098593;23;20011;-66
2022/09/04 01:33:37;;;;;;;;;;;22.00;61.50;;;;;;6098922;23;20002;-66
2022/09/04 01:36:28;;;;;;;3.30;1.98;;;22.00;61.50;;;;;;6098552;23;20301;-66
2022/09/04 01:39:00;;;;;;;5.70;2.03;;;22.00;61.90;;;;;;6098140;23;20010;-66
2022/09/04 01:41:33;;;;;;;7.32;2.03;;;21.90;62.20;;;;;;6098345;23;20002;-66
2022/09/04 01:44:01;;;;;;;4.25;1.83;;;21.90;62.40;;;;;;6098254;23;20002;-66
2022/09/04 01:47:01;;;;;;;9.27;1.98;;;21.80;62.60;;;;;;6098115;23;20126;-66
2022/09/04 01:49:57;;;;;;;4.38;2.10;;;21.80;63.00;;;;;;6098209;23;20020;-66
2022/09/04 01:52:48;;;;;;;9.52;2.10;;;21.70;63.00;;;;;;6098256;23;19999;-66
2022/09/04 01:55:25;;;;;;;8.18;2.30;;;21.70;63.10;;;;;;6098346;23;20010;-65
2022/09/04 01:58:27;;;;;;;5.10;2.17;;;21.60;63.20;;;;;;6098039;23;20007;-66
2022/09/04 02:01:17;;;;;;;5.82;1.70;;;21.60;63.40;;;;;;6098034;23;20022;-66
2022/09/04 02:04:06;;;;;;;3.88;1.70;;;21.60;63.50;;;;;;6098079;23;20002;-66
2022/09/04 02:06:40;;;;;;;3.88;1.70;;;21.60;63.50;;;;;;6098224;23;20067;-66
2022/09/04 02:09:24;;;;;;;3.38;1.80;;;21.50;63.40;;;;;;6097770;23;20010;-66
2022/09/04 02:12:07;;;;;;;4.93;1.98;;;21.60;63.50;;;;;;6098177;23;20026;-66
2022/09/04 02:15:11;;;;;;;3.03;1.40;;;21.50;63.80;;;;;;6098002;23;20085;-66
2022/09/04 02:17:54;;;;;;;4.43;1.25;;;21.50;64.00;;;;;;6071860;23;20088;-66
2022/09/04 02:20:30;;;;;;;2.83;1.23;;;21.50;64.10;;;;;;6097714;23;20011;-66
2022/09/04 02:23:19;;;;;;;3.53;1.20;;;21.50;64.00;;;;;;6097958;23;20014;-66
2022/09/04 02:26:21;;;;;;;4.45;1.42;;;21.50;63.80;;;;;;6097840;23;20006;-66
2022/09/04 02:29:11;;;;;;;2.35;1.55;;;21.50;63.80;;;;;;6098107;23;20105;-66
2022/09/04 02:32:09;;;;;;;5.38;1.52;;;21.50;63.90;;;;;;6097938;23;20017;-66
2022/09/04 02:34:46;;;;;;;4.80;1.60;;;21.50;64.00;;;;;;6067807;23;20010;-66
2022/09/04 02:37:29;;;;;;;2.08;1.52;;;21.40;63.90;;;;;;6097477;23;20003;-66
2022/09/04 02:40:12;;;;;;;4.15;1.52;;;21.40;64.00;;;;;;6097701;23;20465;-66
2022/09/04 02:42:41;;;;;;;3.72;1.38;;;21.40;64.10;;;;;;6097906;23;19998;-66
2022/09/04 02:45:19;;;;;;;3.58;1.35;;;21.40;64.00;;;;;;6097787;23;20089;-66
2022/09/04 02:48:03;;;;;;;6.22;1.50;;;21.40;64.20;;;;;;6097400;23;20014;-66
2022/09/04 02:50:58;;;;;;;3.10;1.40;;;21.40;64.40;;;;;;6097609;23;20058;-66
2022/09/04 02:53:41;;;;;;;3.15;2.00;;;21.50;64.80;;;;;;6097894;23;20062;-66
2022/09/04 02:56:30;;;;;;;1.83;1.30;;;21.40;65.10;;;;;;6097831;23;20014;-66
2022/09/04 02:59:23;;;;;;;3.28;2.00;;;21.40;64.90;;;;;;6097094;23;20020;-66
2022/09/04 03:02:04;;;;;;;2.90;1.50;;;21.40;64.80;;;;;;6097331;23;20007;-66
2022/09/04 03:04:51;;;;;;;5.37;1.43;;;21.40;64.90;;;;;;6097583;23;20452;-66
2022/09/04 03:07:25;;;;;;;2.05;1.50;;;21.40;65.00;;;;;;6097354;23;20002;-66
2022/09/04 03:10:02;;;;;;;3.25;1.30;;;21.40;65.10;;;;;;6097464;23;20045;-66
2022/09/04 03:12:55;;;;;;;1.85;1.20;;;21.40;65.20;;;;;;6097211;23;20006;-66
2022/09/04 03:15:42;;;;;;;3.63;1.50;;;21.40;65.30;;;;;;6097342;23;20006;-65
2022/09/04 03:18:21;;;;;;;4.13;1.23;;;21.40;65.70;;;;;;6097292;23;20068;-65
2022/09/04 03:21:08;;;;;;;1.50;1.15;;;21.40;65.80;;;;;;6097377;23;20005;-66
2022/09/04 03:23:53;;;;;;;2.65;1.63;;;21.40;65.70;;;;;;6097232;23;20412;-66
2022/09/04 03:26:26;;;;;;;3.75;1.45;;;21.40;65.70;;;;;;6097612;23;20338;-66
2022/09/04 03:29:20;;;;;;;6.25;1.60;;;21.40;65.70;;;;;;6097406;23;20011;-66
2022/09/04 03:32:16;;;;;;;2.83;1.10;;;21.30;65.80;;;;;;6097187;23;19998;-66
2022/09/04 03:35:01;;;;;;;4.40;1.38;;;21.40;65.80;;;;;;6097400;23;20308;-66
2022/09/04 03:37:45;;;;;;;2.33;1.30;;;21.30;66.00;;;;;;6097025;23;20006;-65
2022/09/04 03:40:38;;;;;;;3.97;1.40;;;21.30;66.00;;;;;;6097259;23;20006;-66
2022/09/04 03:43:13;;;;;;;5.95;1.40;;;21.30;66.10;;;;;;6093190;23;20104;-66
2022/09/04 03:45:58;;;;;;;2.80;1.50;;;21.30;66.30;;;;;;6097332;23;20422;-66
2022/09/04 03:48:58;;;;;;;8.30;1.30;;;21.30;66.40;;;;;;6097106;23;20021;-66
2022/09/04 03:51:30;;;;;;;7.03;1.52;;;21.30;66.40;;;;;;6077897;23;20018;-67
2022/09/04 03:54:05;;;;;;;3.65;1.55;;;21.30;66.50;;;;;;6097115;23;20034;-67
2022/09/04 03:56:54;;;;;;;5.28;1.50;;;21.30;66.50;;;;;;6097204;23;20388;-65
2022/09/04 03:59:40;;;;;;;3.47;1.50;;;21.40;66.70;;;;;;6096775;23;20026;-66
2022/09/04 04:02:31;;;;;;;2.53;1.20;;;21.40;66.60;;;;;;6081606;23;20016;-66
2022/09/04 04:05:24;;;;;;;7.72;1.90;;;21.40;66.60;;;;;;6096864;23;20002;-66
2022/09/04 04:08:08;;;;;;;10.57;1.90;;;21.40;66.70;;;;;;6096713;23;20097;-65
2022/09/04 04:10:55;;;;;;;4.60;2.00;;;21.40;66.80;;;;;;6097072;23;20322;-66
2022/09/04 04:13:46;;;;;;;4.32;1.60;;;21.30;66.80;;;;;;6096889;23;19998;-66
2022/09/04 04:16:11;;;;;;;5.57;1.60;;;21.30;66.70;;;;;;6097406;23;20009;-66
2022/09/04 04:19:00;;;;;;;4.50;1.90;;;21.30;66.80;;;;;;6097275;23;20018;-66
2022/09/04 04:21:54;;;;;;;2.20;1.70;;;21.20;66.70;;;;;;6096839;23;20013;-66
2022/09/04 04:24:38;;;;;;;4.57;2.00;;;21.10;66.70;;;;;;6096902;23;20010;-66
2022/09/04 04:27:20;;;;;;;5.32;2.00;;;21.10;66.70;;;;;;6097189;23;20002;-66
2022/09/04 04:30:01;;;;;;;5.55;1.80;;;21.10;66.90;;;;;;6096874;23;20434;-66
2022/09/04 04:32:35;;;;;;;7.55;1.60;;;21.10;67.00;;;;;;6096815;23;20322;-66
2022/09/04 04:35:07;;;;;;;4.57;1.70;;;21.00;67.30;;;;;;6096850;23;20101;-66
2022/09/04 04:38:17;;;;;;;8.75;1.63;;;21.00;67.50;;;;;;6096896;23;20077;-65
2022/09/04 04:41:07;;;;;;;4.25;1.70;;;20.90;67.50;;;;;;6008346;23;20011;-66
2022/09/04 04:44:00;;;;;;;4.70;1.80;;;20.90;67.30;;;;;;6008384;23;20019;-66
2022/09/04 04:46:37;;;;;;;4.22;1.58;;;20.80;67.90;;;;;;6083998;23;20014;-66
2022/09/04 04:49:14;;;;;;;7.63;1.88;;;20.90;68.10;;;;;;6096810;23;20015;-66
2022/09/04 04:51:49;;;;;;;3.97;1.88;;;20.90;68.00;;;;;;6096723;23;20303;-67
2022/09/04 04:54:48;;;;;;;5.00;1.88;;;20.80;68.10;;;;;;6096824;23;20017;-66
2022/09/04 04:57:25;;;;;;;8.15;1.73;;;20.80;68.10;;;;;;6096613;23;20082;-66
2022/09/04 05:00:18;;;;;;;3.15;1.50;;;20.80;68.10;;;;;;6096386;23;20212;-66
2022/09/04 05:03:15;;;;;;;2.80;1.80;;;20.80;68.10;;;;;;6096844;23;20085;-65
2022/09/04 05:06:09;;;;;;;3.15;1.70;;;20.80;68.30;;;;;;6096695;23;20003;-65
2022/09/04 05:09:01;;;;;;;2.17;1.42;;;20.80;68.30;;;;;;6096705;23;20010;-66
2022/09/04 05:11:55;;;;;;;3.67;1.35;;;20.80;69.00;;;;;;6096546;23;20468;-67
2022/09/04 05:14:46;;;;;;;6.50;1.58;;;20.80;68.60;;;;;;6096943;23;20135;-66
2022/09/04 05:17:34;;;;;;;9.35;1.52;;;20.80;68.40;;;;;;6096539;23;20452;-66
2022/09/04 05:20:31;;;;;;;4.00;1.42;;;20.80;68.60;;;;;;6097281;23;20073;-66
2022/09/04 05:23:24;;;;;;;5.05;1.60;;;20.90;68.60;;;;;;6098679;23;20014;-66
2022/09/04 05:26:23;;;;;;;3.65;1.48;;;20.90;69.30;;;;;;6098335;23;20010;-66
2022/09/04 05:29:01;;;;;;;4.03;1.13;;;20.90;68.50;;;;;;6098401;23;20010;-66
2022/09/04 05:31:47;;;;;;;6.32;1.35;;;20.90;68.50;;;;;;6098531;23;20089;-66
2022/09/04 05:34:39;;;;;;;6.38;1.23;;;20.90;68.50;;;;;;6098312;23;20030;-66
2022/09/04 05:37:48;;;;;;;5.47;1.40;;;20.90;68.60;;;;;;6098091;23;20015;-66
2022/09/04 05:40:32;;;;;;;1.90;1.55;;;21.00;68.60;;;;;;6098259;23;20007;-65
2022/09/04 05:43:25;;;;;;;5.63;1.40;;;20.90;68.70;;;;;;6098563;23;20377;-65
2022/09/04 05:45:54;;;;;;;3.58;1.70;;;20.90;68.50;;;;;;6098095;23;20006;-66
2022/09/04 05:49:07;;;;;;;2.83;1.73;;;20.90;68.80;;;;;;6098003;23;20014;-65
2022/09/04 05:51:41;;;;;;;4.85;1.60;;;20.90;68.20;;;;;;6009973;23;20022;-65
2022/09/04 05:54:25;;;;;;;2.70;1.50;;;20.90;68.30;;;;;;6009855;23;20008;-66
2022/09/04 05:57:04;;;;;;;3.25;1.50;;;20.90;68.50;;;;;;6072113;23;20065;-65
2022/09/04 06:00:03;;;;;;;3.33;1.70;;;20.80;68.70;;;;;;6097923;23;20465;-66
2022/09/04 06:02:50;;;;;;;2.15;1.50;;;20.80;69.10;;;;;;6098054;23;20011;-66
2022/09/04 06:06:03;;;;;;;3.45;1.55;;;20.80;69.30;;;;;;6097981;23;20006;-66
2022/09/04 06:08:55;;;;;;;4.22;1.58;;;20.80;69.30;;;;;;6009187;23;20023;-66
2022/09/04 06:11:44;;;;;;;3.50;1.60;;;20.90;69.50;;;;;;6088911;23;20015;-67
2022/09/04 06:14:35;;;;;;;3.15;1.65;;;20.90;69.70;;;;;;6095841;23;20006;-67
2022/09/04 06:17:27;;;;;;;3.60;1.50;;;20.90;69.50;;;;;;6096432;23;20342;-66
2022/09/04 06:19:58;;;;;;;2.55;1.70;;;21.00;69.50;;;;;;6097847;23;20014;-66
2022/09/04 06:22:39;;;;;;;2.13;1.63;;;21.00;69.50;;;;;;6097331;23;20181;-67
2022/09/04 06:25:20;;;;;;;3.72;1.40;;;21.00;69.50;;;;;;6097651;23;20017;-66
2022/09/04 06:28:12;;;;;;;4.63;1.48;;;21.10;69.40;;;;;;6097229;23;20014;-67
2022/09/04 06:31:05;;;;;;;3.58;1.42;;;21.20;69.40;;;;;;6096802;23;20005;-66
2022/09/04 06:33:49;;;;;;;2.15;1.70;;;21.20;69.10;;;;;;6096110;23;20085;-67
2022/09/04 06:36:39;;;;;;;2.78;1.40;;;21.20;69.20;;;;;;6096917;23;20497;-66
2022/09/04 06:39:21;;;;;;;6.13;1.70;;;21.30;69.20;;;;;;6096759;23;20003;-66
2022/09/04 06:41:46;;;;;;;;;;;21.30;69.30;;;;;;6096463;23;20014;-66
2022/09/04 06:44:39;;;;;;;5.03;1.70;;;21.40;69.30;;;;;;6094877;23;20357;-67
2022/09/04 06:47:14;;;;;;;3.25;1.67;;;21.40;69.10;;;;;;6097044;23;20077;-66
2022/09/04 06:50:04;;;;;;;3.78;1.58;;;21.50;68.80;;;;;;6097577;23;20006;-66
2022/09/04 06:52:55;;;;;;;6.80;1.35;;;21.60;68.40;;;;;;6095737;23;20010;-66
2022/09/04 06:55:32;;;;;;;5.63;1.58;;;21.60;68.20;;;;;;6096199;23;20010;-66
2022/09/04 06:58:22;;;;;;;3.13;1.55;;;21.70;67.90;;;;;;6095663;23;20003;-66
2022/09/04 07:01:02;;;;;;;3.75;1.63;;;21.70;67.80;;;;;;6095942;23;20105;-66
2022/09/04 07:04:01;;;;;;;6.50;1.85;;;21.80;67.60;;;;;;6096175;23;20010;-68
2022/09/04 07:06:44;;;;;;;2.08;1.30;;;21.90;67.50;;;;;;6048428;23;20006;-70
2022/09/04 07:09:22;;;;;;;2.80;1.23;;;21.90;67.40;;;;;;6096938;23;20060;-68
2022/09/04 07:12:12;;;;;;;5.70;1.20;;;22.00;67.10;;;;;;6096615;23;20014;-69
2022/09/04 07:14:46;;;;;;;6.95;1.50;;;22.10;66.80;;;;;;6097270;23;20013;-68
2022/09/04 07:17:38;;;;;;;6.45;1.40;;;22.20;66.80;;;;;;6096185;23;20018;-68
2022/09/04 07:20:21;;;;;;;6.10;1.33;;;22.20;66.60;;;;;;6062577;23;20014;-68
2022/09/04 07:23:07;;;;;;;3.33;1.30;;;22.30;66.20;;;;;;6097251;23;20006;-67
2022/09/04 07:26:08;;;;;;;1.75;1.10;;;22.40;66.00;;;;;;6052208;23;20017;-68
2022/09/04 07:28:50;;;;;;;3.13;1.33;;;22.40;65.60;;;;;;6063510;23;20065;-68
2022/09/04 07:31:29;;;;;;;3.90;1.50;;;22.50;65.30;;;;;;6097598;23;20079;-68
2022/09/04 07:34:17;;;;;;;1.50;1.02;;;22.50;65.00;;;;;;6097171;23;19999;-68
2022/09/04 07:37:03;;;;;;;3.63;1.50;;;22.60;65.00;;;;;;6096927;23;20097;-68
2022/09/04 07:40:03;;;;;;;3.47;1.40;;;22.70;65.00;;;;;;6096920;23;20009;-67
2022/09/04 07:43:02;;;;;;;2.83;1.20;;;22.70;64.60;;;;;;6096865;23;20010;-68
2022/09/04 07:45:33;;;;;;;2.10;1.20;;;22.80;64.60;;;;;;6097079;23;20465;-68
2022/09/04 07:48:16;;;;;;;2.70;1.33;;;22.90;64.40;;;;;;6096924;23;20010;-68
2022/09/04 07:51:09;;;;;;;1.73;1.13;;;23.00;64.00;;;;;;6096786;23;19998;-67
2022/09/04 07:54:10;;;;;;;5.15;1.38;;;23.00;63.90;;;;;;6096908;23;20057;-67
2022/09/04 07:57:10;;;;;;;1.98;1.10;;;23.10;63.40;;;;;;6097374;23;20015;-68
2022/09/04 07:59:44;;;;;;;2.60;1.27;;;23.20;63.90;;;;;;6096772;23;20356;-67
2022/09/04 08:02:29;;;;;;;2.08;1.23;;;23.30;63.10;;;;;;6096845;23;20018;-68
2022/09/04 08:05:16;;;;;;;3.40;1.27;;;23.40;62.80;;;;;;6096905;23;19999;-68
2022/09/04 08:08:02;;;;;;;4.28;0.90;;;23.40;62.60;;;;;;6096676;23;19998;-68
2022/09/04 08:11:16;;;;;;;2.78;1.17;;;23.50;62.10;;;;;;6096910;23;20399;-71
2022/09/04 08:14:09;;;;;;;5.88;1.65;;;23.60;61.80;;;;;;6077928;23;20018;-68
2022/09/04 08:16:42;;;;;;;6.90;1.30;;;23.60;61.50;;;;;;6096603;23;20003;-68
2022/09/04 08:19:27;;;;;;;2.97;1.10;;;23.70;61.80;;;;;;6096891;23;19999;-68
2022/09/04 08:21:54;;;;;;;2.58;1.38;;;23.70;61.30;;;;;;6096380;23;20074;-68
2022/09/04 08:24:44;;;;;;;1.83;1.05;;;23.80;61.30;;;;;;6097107;23;20017;-68
2022/09/04 08:27:41;;;;;;;3.53;1.00;;;23.80;61.80;;;;;;6096614;23;20341;-67
2022/09/04 08:30:12;;;;;;;1.77;0.95;;;23.90;61.50;;;;;;6096495;23;20016;-68
2022/09/04 08:32:59;;;;;;;3.50;1.10;;;24.00;61.20;;;;;;6096685;23;20018;-68
2022/09/04 08:35:53;;;;;;;1.90;1.00;;;24.10;60.90;;;;;;6094251;23;20497;-68
2022/09/04 08:38:55;;;;;;;2.88;1.10;;;24.10;60.60;;;;;;6096457;23;20007;-68
2022/09/04 08:41:40;;;;;;;3.38;1.10;;;24.20;60.40;;;;;;6081348;23;20097;-68
2022/09/04 08:44:25;;;;;;;3.00;1.20;;;24.20;60.20;;;;;;6096723;23;20054;-71
2022/09/04 08:47:12;;;;;;;1.30;1.02;;;24.30;60.90;;;;;;6096362;23;20334;-68
2022/09/04 08:50:02;;;;;;;4.55;1.00;;;24.40;60.50;;;;;;6096109;23;20050;-67
2022/09/04 08:52:51;;;;;;;4.97;1.20;;;24.50;60.20;;;;;;6096758;23;20071;-69
2022/09/04 08:55:44;;;;;;;4.72;1.15;;;24.50;60.40;;;;;;6097166;23;20316;-69
2022/09/04 08:58:22;;;;;;;3.80;1.30;;;24.60;60.60;;;;;;6098273;23;20497;-68
2022/09/04 09:01:25;;;;;;;10.57;1.38;;;24.80;60.30;;;;;;6098385;23;20022;-68
2022/09/04 09:04:02;;;;;;;3.35;1.10;;;24.80;60.70;;;;;;6098601;23;20077;-68
2022/09/04 09:06:59;;;;;;;1.90;1.15;;;24.90;59.50;;;;;;6098650;23;20445;-68
2022/09/04 09:09:56;;;;;;;7.38;1.80;;;24.90;59.70;;;;;;6098395;23;20010;-68
2022/09/04 09:12:52;;;;;;;3.58;1.95;;;25.00;59.80;;;;;;6083148;23;20010;-68
2022/09/04 09:15:45;;;;;;;3.13;2.30;;;25.00;60.30;;;;;;6098269;23;20017;-68
2022/09/04 09:18:32;;;;;;;4.63;1.75;;;25.00;59.60;;;;;;6098398;23;20082;-68
2022/09/04 09:21:17;;;;;;;4.03;1.45;;;24.90;59.90;;;;;;6098240;23;20354;-68
2022/09/04 09:24:11;;;;;;;1.52;1.30;;;24.90;59.60;;;;;;6098081;23;20006;-68
2022/09/04 09:27:13;;;;;;;3.67;1.80;;;25.00;59.70;;;;;;6066462;23;20360;-68
2022/09/04 09:30:11;;;;;;;5.45;1.50;;;24.90;59.20;;;;;;6079548;23;20090;-68
2022/09/04 09:32:57;;;;;;;1.63;1.10;;;24.90;59.20;;;;;;6098382;23;19998;-68
2022/09/04 09:35:28;;;;;;;1.98;1.23;;;24.90;58.70;;;;;;6098422;23;20003;-68
2022/09/04 09:37:55;;;;;;;4.00;1.20;;;24.90;59.00;;;;;;6098299;23;20002;-68
2022/09/04 09:40:32;;;;;;;2.15;1.33;;;24.90;59.40;;;;;;6098136;23;20151;-68
2022/09/04 09:43:16;;;;;;;2.75;1.20;;;24.90;59.20;;;;;;6098345;23;20017;-68
2022/09/04 09:46:08;;;;;;;2.22;1.10;;;24.90;58.90;;;;;;6097760;23;20017;-68
2022/09/04 09:49:05;;;;;;;2.03;1.05;;;25.00;58.40;;;;;;6057118;23;20018;-68
2022/09/04 09:51:58;;;;;;;1.48;1.00;;;25.10;58.30;;;;;;6098033;23;20485;-68
2022/09/04 09:54:29;;;;;;;1.63;1.00;;;25.20;58.00;;;;;;6098507;23;20010;-68
2022/09/04 09:57:37;;;;;;;3.63;1.05;;;25.30;57.50;;;;;;6098095;23;20012;-68
2022/09/04 10:00:06;;;;;;;3.47;0.93;;;25.40;57.10;;;;;;6097823;23;20101;-72
2022/09/04 10:03:00;;;;;;;3.72;0.90;;;25.50;57.20;;;;;;6097990;23;20007;-68
2022/09/04 10:05:36;;;;;;;3.72;1.10;;;25.60;56.60;;;;;;6095513;23;20014;-68
2022/09/04 10:08:26;;;;;;;2.15;1.10;;;25.60;55.90;;;;;;6097678;23;20018;-68
2022/09/04 10:11:01;;;;;;;2.08;0.82;;;25.70;56.20;;;;;;6098266;23;20014;-68
2022/09/04 10:13:44;;;;;;;2.30;1.10;;;25.80;55.80;;;;;;6098204;23;20062;-72
2022/09/04 10:16:38;;;;;;;2.42;1.10;;;25.80;56.10;;;;;;6097787;23;20006;-68
2022/09/04 10:19:36;;;;;;;1.98;0.90;;;25.90;55.70;;;;;;6097892;23;20003;-68
2022/09/04 10:22:20;;;;;;;1.23;0.93;;;25.90;55.60;;;;;;6097903;23;20013;-68
2022/09/04 10:25:22;;;;;;;2.55;1.10;;;26.00;55.60;;;;;;6097412;23;19998;-68
2022/09/04 10:27:57;;;;;;;1.85;0.93;;;26.10;56.00;;;;;;6097526;23;20101;-68
2022/09/04 10:30:23;;;;;;;3.65;1.00;;;26.10;55.50;;;;;;6097896;23;20130;-68
2022/09/04 10:33:08;;;;;;;2.00;1.00;;;26.10;55.20;;;;;;6097641;23;20006;-69
2022/09/04 10:35:57;;;;;;;3.55;1.00;;;26.30;55.70;;;;;;6097914;23;20090;-67
2022/09/04 10:41:59;;;;;;;1.20;1.00;;;26.40;55.00;;;;;;6097520;23;20057;-68
2022/09/04 10:44:59;;;;;;;2.03;1.10;;;26.40;55.20;;;;;;6056002;23;20342;-67
2022/09/04 10:47:57;;;;;;;1.52;0.88;;;26.50;54.50;;;;;;6081647;23;20014;-67
2022/09/04 10:50:23;;;;;;;1.50;0.90;;;26.50;54.50;;;;;;6097930;23;20138;-68
2022/09/04 10:53:10;;;;;;;2.15;1.05;;;26.60;54.50;;;;;;6097497;23;20439;-67
2022/09/04 10:55:56;;;;;;;2.05;1.25;;;26.60;53.90;;;;;;6097482;23;20003;-67
2022/09/04 10:58:55;;;;;;;3.20;1.45;;;26.70;54.20;;;;;;6097633;23;20330;-67
2022/09/04 11:01:50;;;;;;;1.88;1.17;;;26.80;54.70;;;;;;6097836;23;20041;-68
2022/09/04 11:04:45;;;;;;;2.03;0.93;;;26.80;54.00;;;;;;6097704;23;20018;-68
2022/09/04 11:07:32;;;;;;;2.47;1.00;;;26.90;53.90;;;;;;6097373;23;20477;-67
2022/09/04 11:10:12;;;;;;;2.10;1.05;;;26.90;53.30;;;;;;6097148;23;20007;-68
2022/09/04 11:12:50;;;;;;;1.27;0.95;;;27.00;53.10;;;;;;6097311;23;20006;-67
2022/09/04 11:15:41;;;;;;;1.83;0.95;;;27.00;53.40;;;;;;6097271;23;20062;-67
2022/09/04 11:18:32;;;;;;;2.63;1.10;;;27.10;53.00;;;;;;6096888;23;20117;-68
2022/09/04 11:21:20;;;;;;;1.92;1.05;;;27.10;53.00;;;;;;6097369;23;20009;-67
2022/09/04 11:24:20;;;;;;;3.03;1.05;;;27.10;52.80;;;;;;6097179;23;20429;-67
2022/09/04 11:27:22;;;;;;;3.67;1.27;;;27.20;53.40;;;;;;6094492;23;20512;-68
2022/09/04 11:30:15;;;;;;;3.92;1.02;;;27.20;53.50;;;;;;6094196;23;20030;-68
2022/09/04 11:32:50;;;;;;;3.20;1.10;;;27.30;52.90;;;;;;6095140;23;20026;-67
2022/09/04 11:35:22;;;;;;;5.95;1.10;;;27.40;52.10;;;;;;6097193;23;20011;-67
2022/09/04 11:38:12;;;;;;;4.32;2.10;;;27.40;51.90;;;;;;6096903;23;20065;-67
2022/09/04 11:41:15;;;;;;;2.40;0.93;;;27.40;51.70;;;;;;6096775;23;20002;-68
2022/09/04 11:44:13;;;;;;;4.03;1.10;;;27.40;51.80;;;;;;6097023;23;20070;-67
2022/09/04 11:47:10;;;;;;;2.70;1.17;;;27.40;51.80;;;;;;6060464;23;20449;-67
2022/09/04 11:50:09;;;;;;;1.95;1.00;;;27.50;51.90;;;;;;6070896;23;20331;-67
2022/09/04 11:53:13;;;;;;;4.82;0.90;;;27.50;51.40;;;;;;6096980;23;20074;-67
2022/09/04 11:56:00;;;;;;;2.47;0.80;;;27.60;51.60;;;;;;6061554;23;20014;-68
2022/09/04 11:58:44;;;;;;;6.25;1.30;;;27.60;51.30;;;;;;6096584;23;20015;-67
2022/09/04 12:01:18;;;;;;;2.58;0.93;;;27.70;51.60;;;;;;6096866;23;20011;-68
2022/09/04 12:04:13;;;;;;;2.00;1.23;;;27.70;51.50;;;;;;6096777;23;20026;-67
2022/09/04 12:06:58;;;;;;;1.85;0.80;;;27.80;51.10;;;;;;6096739;23;20344;-68
2022/09/04 12:09:39;;;;;;;1.13;0.80;;;27.80;50.20;;;;;;6096751;23;20014;-68
2022/09/04 12:12:23;;;;;;;1.48;0.77;;;27.80;49.80;;;;;;6096725;23;19998;-67
2022/09/04 12:15:07;;;;;;;2.05;1.10;;;27.80;50.40;;;;;;6096618;23;20030;-69
2022/09/04 12:17:53;;;;;;;8.88;1.30;;;27.90;50.00;;;;;;6096739;23;20002;-68
2022/09/04 12:20:29;;;;;;;3.63;0.85;;;27.90;50.10;;;;;;6096377;23;20448;-69
2022/09/04 12:23:00;;;;;;;2.83;0.80;;;27.90;50.00;;;;;;6096350;23;20074;-69
2022/09/04 12:25:44;;;;;;;2.05;0.88;;;28.00;50.40;;;;;;6096951;23;20008;-69
2022/09/04 12:28:39;;;;;;;1.50;0.90;;;28.00;50.70;;;;;;6096434;23;20093;-69
2022/09/04 12:31:35;;;;;;;2.22;0.85;;;28.00;50.60;;;;;;6077289;23;20085;-68
2022/09/04 12:34:15;;;;;;;6.28;1.40;;;28.10;50.50;;;;;;6096162;23;20050;-68
2022/09/04 12:36:50;;;;;;;1.98;0.90;;;28.10;51.50;;;;;;6096818;23;20414;-68
2022/09/04 12:39:51;;;;;;;2.55;1.02;;;28.20;50.70;;;;;;6096578;23;19999;-68
2022/09/04 12:42:34;;;;;;;5.18;1.20;;;28.20;50.20;;;;;;6022322;23;20040;-68
2022/09/04 12:45:19;;;;;;;1.98;1.13;;;28.20;50.10;;;;;;6096998;23;20006;-68
2022/09/04 12:48:11;;;;;;;3.80;1.00;;;28.30;50.30;;;;;;6096571;23;20101;-68
2022/09/04 12:50:52;;;;;;;;;;;28.30;50.10;;;;;;6097145;23;20006;-68
2022/09/04 12:53:31;;;;;;;1.65;0.90;;;28.30;50.50;;;;;;6096892;23;19901;-68
2022/09/04 12:56:12;;;;;;;1.08;0.70;;;28.40;49.70;;;;;;6096475;23;20007;-68
2022/09/04 12:58:52;;;;;;;1.40;0.85;;;28.40;49.80;;;;;;6096552;23;20006;-68
2022/09/04 13:01:44;;;;;;;1.23;0.80;;;28.40;49.70;;;;;;6096758;23;20018;-69
2022/09/04 13:04:13;;;;;;;3.53;1.02;;;28.40;49.30;;;;;;6096355;23;20330;-68
2022/09/04 13:07:25;;;;;;;1.65;1.10;;;28.50;49.50;;;;;;6096610;23;20349;-68
2022/09/04 13:09:53;;;;;;;1.98;0.90;;;28.50;49.40;;;;;;6007894;23;20043;-68
2022/09/04 13:12:37;;;;;;;4.63;0.80;;;28.50;49.30;;;;;;6079375;23;20463;-68
2022/09/04 13:15:42;;;;;;;8.07;2.10;;;28.50;48.90;;;;;;6095589;23;20062;-68
2022/09/04 13:18:13;;;;;;;3.17;1.20;;;28.50;49.10;;;;;;6007774;23;20439;-69
2022/09/04 13:20:39;;;;;;;3.67;1.90;;;28.60;49.90;;;;;;6007928;23;20007;-68
2022/09/04 13:23:23;;;;;;;2.45;1.20;;;28.60;49.70;;;;;;6052113;23;20098;-68
2022/09/04 13:26:04;;;;;;;8.52;1.10;;;28.60;49.50;;;;;;6095730;23;20014;-67
2022/09/04 13:28:44;;;;;;;5.90;2.05;;;28.60;49.40;;;;;;6096298;23;20401;-68
2022/09/04 13:31:18;;;;;;;5.20;3.08;;;28.70;49.20;;;;;;6096651;23;20015;-69
2022/09/04 13:34:03;;;;;;;10.18;3.95;;;28.70;48.90;;;;;;6096147;23;20006;-68
2022/09/04 13:36:53;;;;;;;2.70;1.50;;;28.70;48.60;;;;;;6095880;23;20007;-67
2022/09/04 13:39:59;;;;;;;4.38;1.20;;;28.70;48.40;;;;;;6096333;23;20003;-68
2022/09/04 13:42:53;;;;;;;3.83;1.83;;;28.70;48.20;;;;;;6097241;23;19998;-68
2022/09/04 13:45:22;;;;;;;6.47;3.70;;;28.70;48.00;;;;;;6097802;23;20029;-67
2022/09/04 13:48:05;;;;;;;1.40;1.05;;;28.70;48.20;;;;;;6097672;23;20022;-68
2022/09/04 13:50:36;;;;;;;6.50;1.17;;;28.80;48.20;;;;;;6097484;23;20002;-68
2022/09/04 13:53:16;;;;;;;1.38;0.77;;;28.80;48.30;;;;;;6097460;23;20012;-68
2022/09/04 13:55:53;;;;;;;15.80;5.82;;;28.80;48.20;;;;;;6097303;23;20002;-67
2022/09/04 13:58:28;;;;;;;5.35;1.50;;;28.80;48.30;;;;;;6097474;23;20014;-68
2022/09/04 14:00:59;;;;;;;7.28;2.25;;;28.80;48.20;;;;;;6097327;23;20018;-69
2022/09/04 14:03:36;;;;;;;3.28;1.92;;;28.80;48.30;;;;;;6097376;23;20010;-69
2022/09/04 14:06:07;;;;;;;5.38;1.92;;;28.80;49.80;;;;;;6095625;23;20468;-68
2022/09/04 14:08:35;;;;;;;1.85;1.00;;;28.80;49.50;;;;;;6094521;23;20025;-68
2022/09/04 14:11:16;;;;;;;3.78;0.90;;;28.80;49.30;;;;;;6095994;23;20086;-67
2022/09/04 14:14:19;;;;;;;1.15;0.80;;;28.90;49.20;;;;;;6097277;23;20077;-67
2022/09/04 14:16:48;;;;;;;6.95;1.70;;;28.90;49.10;;;;;;6097758;23;20002;-68
2022/09/04 14:19:31;;;;;;;4.43;1.45;;;28.90;49.00;;;;;;6097700;23;20054;-68
2022/09/04 14:22:15;;;;;;;4.28;2.03;;;28.90;49.20;;;;;;6097687;23;20012;-68
2022/09/04 14:25:17;;;;;;;14.23;4.75;;;28.80;49.30;;;;;;6097472;23;20329;-70
2022/09/04 14:28:02;;;;;;;3.65;1.88;;;28.90;49.80;;;;;;6097030;23;20094;-69
2022/09/04 14:30:33;;;;;;;5.47;1.90;;;28.90;50.10;;;;;;6097528;23;20006;-67